createdAt,value
2022-08-20T00:00:06.823Z,100658.72
2022-08-20T00:02:41.146Z,100664.28
2022-08-20T00:05:07.657Z,100660.38
2022-08-20T00:07:34.013Z,100658.31
2022-08-20T00:10:00.650Z,100660.66
2022-08-20T00:12:27.105Z,100658.69
2022-08-20T00:14:53.417Z,100645.69
2022-08-20T00:17:19.733Z,100631.69
2022-08-20T00:19:46.046Z,100628.56
2022-08-20T00:22:13.526Z,100638.88
2022-08-20T00:24:39.870Z,100641.31
2022-08-20T00:27:06.311Z,100626.19
2022-08-20T00:29:32.621Z,100626.63
2022-08-20T00:31:59.427Z,100623.47
2022-08-20T00:34:25.800Z,100619.63
2022-08-20T00:36:52.158Z,100620.16
2022-08-20T00:39:18.491Z,100625.28
2022-08-20T00:41:45.222Z,100626.84
2022-08-20T00:44:13.610Z,100624.63
2022-08-20T00:46:40.770Z,100633.94
2022-08-20T00:49:17.665Z,100633.19
2022-08-20T00:51:46.513Z,100642.00
2022-08-20T00:54:27.812Z,100639.66
2022-08-20T00:57:00.489Z,100636.97
2022-08-20T00:59:28.368Z,100638.97
2022-08-20T01:01:55.440Z,100638.47
2022-08-20T01:04:25.169Z,100649.94
2022-08-20T01:06:51.735Z,100642.84
2022-08-20T01:09:18.035Z,100642.00
2022-08-20T01:12:05.305Z,100637.28
2022-08-20T01:14:34.308Z,100635.41
2022-08-20T01:17:02.315Z,100644.00
2022-08-20T01:19:31.268Z,100636.44
2022-08-20T01:21:59.198Z,100641.56
2022-08-20T01:24:36.880Z,100640.16
2022-08-20T01:27:04.173Z,100639.81
2022-08-20T01:29:34.889Z,100643.28
2022-08-20T01:32:02.297Z,100640.69
2022-08-20T01:34:28.759Z,100641.25
2022-08-20T01:36:56.056Z,100641.22
2022-08-20T01:39:24.593Z,100642.03
2022-08-20T01:42:02.845Z,100635.28
2022-08-20T01:44:29.946Z,100640.13
2022-08-20T01:46:59.539Z,100638.16
2022-08-20T01:49:30.317Z,100640.25
2022-08-20T01:51:59.010Z,100646.91
2022-08-20T01:54:27.106Z,100645.88
2022-08-20T01:56:56.311Z,100654.53
2022-08-20T01:59:22.655Z,100660.03
2022-08-20T02:01:49.102Z,100652.06
2022-08-20T02:04:17.174Z,100647.69
2022-08-20T02:06:45.430Z,100650.16
2022-08-20T02:09:23.928Z,100654.00
2022-08-20T02:11:50.357Z,100651.28
2022-08-20T02:14:16.862Z,100665.19
2022-08-20T02:16:45.802Z,100657.06
2022-08-20T02:19:22.878Z,100666.19
2022-08-20T02:21:51.787Z,100655.47
2022-08-20T02:24:18.340Z,100669.88
2022-08-20T02:26:44.653Z,100670.19
2022-08-20T02:29:12.168Z,100669.41
2022-08-20T02:32:23.592Z,100669.81
2022-08-20T02:34:25.344Z,100674.63
2022-08-20T02:36:52.425Z,100669.84
2022-08-20T02:39:18.720Z,100676.63
2022-08-20T02:41:45.018Z,100680.00
2022-08-20T02:44:12.378Z,100680.28
2022-08-20T02:46:38.847Z,100677.41
2022-08-20T02:49:05.182Z,100671.47
2022-08-20T02:51:31.729Z,100676.53
2022-08-20T02:53:58.215Z,100674.34
2022-08-20T02:56:24.624Z,100681.03
2022-08-20T02:58:50.932Z,100676.94
2022-08-20T03:01:17.671Z,100683.28
2022-08-20T03:03:44.297Z,100680.03
2022-08-20T03:06:11.127Z,100681.22
2022-08-20T03:08:38.122Z,100682.66
2022-08-20T03:11:05.347Z,100673.91
2022-08-20T03:13:31.763Z,100675.03
2022-08-20T03:15:59.354Z,100677.41
2022-08-20T03:18:27.638Z,100670.59
2022-08-20T03:20:53.954Z,100671.72
2022-08-20T03:23:21.694Z,100674.81
2022-08-20T03:25:48.121Z,100670.06
2022-08-20T03:28:14.648Z,100666.88
2022-08-20T03:30:41.551Z,100677.22
2022-08-20T03:33:08.808Z,100669.28
2022-08-20T03:35:35.703Z,100670.16
2022-08-20T03:38:02.187Z,100671.38
2022-08-20T03:40:30.330Z,100674.63
2022-08-20T03:42:57.041Z,100662.88
2022-08-20T03:45:23.891Z,100663.25
2022-08-20T03:47:51.594Z,100671.31
2022-08-20T03:50:23.248Z,100674.06
2022-08-20T03:52:53.760Z,100664.22
2022-08-20T03:55:21.064Z,100672.59
2022-08-20T03:57:48.748Z,100674.59
2022-08-20T04:00:15.886Z,100672.03
2022-08-20T04:02:42.203Z,100677.41
2022-08-20T04:05:08.751Z,100675.53
2022-08-20T04:07:36.402Z,100675.53
2022-08-20T04:10:04.620Z,100678.66
2022-08-20T04:12:30.931Z,100679.00
2022-08-20T04:14:57.417Z,100690.66
2022-08-20T04:17:24.620Z,100698.09
2022-08-20T04:19:50.946Z,100692.25
2022-08-20T04:22:18.529Z,100694.25
2022-08-20T04:24:44.853Z,100695.41
2022-08-20T04:27:11.980Z,100697.03
2022-08-20T04:29:42.989Z,100692.72
2022-08-20T04:32:09.548Z,100694.25
2022-08-20T04:34:36.826Z,100692.34
2022-08-20T04:37:03.478Z,100692.34
2022-08-20T04:39:29.800Z,100685.22
2022-08-20T04:41:56.126Z,100689.50
2022-08-20T04:44:22.701Z,100683.41
2022-08-20T04:46:49.012Z,100685.63
2022-08-20T04:49:15.432Z,100690.78
2022-08-20T04:51:41.818Z,100688.81
2022-08-20T04:54:08.106Z,100689.16
2022-08-20T04:56:39.697Z,100690.75
2022-08-20T04:59:06.116Z,100691.06
2022-08-20T05:01:33.155Z,100696.19
2022-08-20T05:03:59.609Z,100702.97
2022-08-20T05:06:28.473Z,100694.19
2022-08-20T05:08:55.809Z,100710.03
2022-08-20T05:11:34.881Z,100706.00
2022-08-20T05:14:04.082Z,100714.34
2022-08-20T05:16:30.481Z,100706.81
2022-08-20T05:18:56.821Z,100708.78
2022-08-20T05:21:23.143Z,100702.09
2022-08-20T05:23:49.687Z,100700.66
2022-08-20T05:26:16.575Z,100702.31
2022-08-20T05:28:54.459Z,100705.06
2022-08-20T05:31:30.985Z,100705.81
2022-08-20T05:34:10.970Z,100705.94
2022-08-20T05:36:39.592Z,100704.34
2022-08-20T05:39:05.897Z,100711.94
2022-08-20T05:41:32.216Z,100709.59
2022-08-20T05:44:01.054Z,100713.97
2022-08-20T05:46:27.723Z,100704.59
2022-08-20T05:48:54.118Z,100708.81
2022-08-20T05:51:20.396Z,100716.09
2022-08-20T05:53:46.697Z,100710.06
2022-08-20T05:56:13.046Z,100714.50
2022-08-20T05:58:39.352Z,100726.69
2022-08-20T06:01:05.955Z,100731.16
2022-08-20T06:03:51.088Z,100720.50
2022-08-20T06:06:44.063Z,100727.63
2022-08-20T06:09:04.019Z,100729.25
2022-08-20T06:11:35.033Z,100734.38
2022-08-20T06:14:03.573Z,100729.66
2022-08-20T06:16:30.872Z,100730.75
2022-08-20T06:18:58.475Z,100733.91
2022-08-20T06:21:24.898Z,100730.78
2022-08-20T06:23:57.124Z,100735.75
2022-08-20T06:26:29.981Z,100734.97
2022-08-20T06:28:57.378Z,100735.72
2022-08-20T06:31:23.699Z,100741.13
2022-08-20T06:33:49.994Z,100739.22
2022-08-20T06:36:18.888Z,100730.81
2022-08-20T06:38:46.089Z,100736.66
2022-08-20T06:41:12.373Z,100740.72
2022-08-20T06:43:38.687Z,100742.66
2022-08-20T06:46:05.453Z,100756.66
2022-08-20T06:48:31.780Z,100766.97
2022-08-20T06:50:58.160Z,100765.34
2022-08-20T06:53:25.342Z,100766.06
2022-08-20T06:55:53.542Z,100771.16
2022-08-20T06:58:26.548Z,100774.78
2022-08-20T07:01:10.394Z,100768.06
2022-08-20T07:03:54.926Z,100770.44
2022-08-20T07:06:22.453Z,100766.50
2022-08-20T07:08:48.782Z,100777.19
2022-08-20T07:11:15.089Z,100767.38
2022-08-20T07:13:41.935Z,100772.81
2022-08-20T07:16:08.272Z,100767.25
2022-08-20T07:18:34.578Z,100763.38
2022-08-20T07:21:01.035Z,100769.00
2022-08-20T07:23:27.462Z,100765.88
2022-08-20T07:25:55.497Z,100767.41
2022-08-20T07:28:22.846Z,100774.63
2022-08-20T07:31:13.332Z,100777.44
2022-08-20T07:33:41.394Z,100778.66
2022-08-20T07:36:07.828Z,100768.28
2022-08-20T07:38:35.751Z,100767.53
2022-08-20T07:41:10.125Z,100769.91
2022-08-20T07:43:36.598Z,100774.63
2022-08-20T07:46:07.589Z,100777.44
2022-08-20T07:48:35.837Z,100780.91
2022-08-20T07:51:05.913Z,100784.53
2022-08-20T07:53:36.321Z,100782.94
2022-08-20T07:56:05.877Z,100790.47
2022-08-20T07:58:33.274Z,100798.38
2022-08-20T08:01:00.136Z,100795.63
2022-08-20T08:03:39.937Z,100791.97
2022-08-20T08:06:14.538Z,100810.25
2022-08-20T08:08:43.837Z,100816.13
2022-08-20T08:11:11.076Z,100821.56
2022-08-20T08:13:40.112Z,100820.03
2022-08-20T08:16:07.294Z,100827.78
2022-08-20T08:18:37.928Z,100832.25
2022-08-20T08:21:05.493Z,100827.38
2022-08-20T08:23:32.310Z,100834.06
2022-08-20T08:25:59.249Z,100837.66
2022-08-20T08:28:26.726Z,100840.84
2022-08-20T08:30:53.039Z,100835.59
2022-08-20T08:33:30.830Z,100835.13
2022-08-20T08:36:05.121Z,100834.75
2022-08-20T08:38:34.244Z,100838.59
2022-08-20T08:41:08.422Z,100832.97
2022-08-20T08:43:34.838Z,100835.00
2022-08-20T08:46:03.513Z,100833.31
2022-08-20T08:48:50.631Z,100834.47
2022-08-20T08:51:20.507Z,100838.75
2022-08-20T08:53:54.644Z,100837.94
2022-08-20T08:56:24.842Z,100835.66
2022-08-20T08:58:51.207Z,100839.47
2022-08-20T09:01:55.132Z,100840.28
2022-08-20T09:04:05.822Z,100838.31
2022-08-20T09:06:32.629Z,100844.19
2022-08-20T09:09:03.645Z,100841.50
2022-08-20T09:11:30.308Z,100851.34
2022-08-20T09:13:57.060Z,100851.56
2022-08-20T09:16:24.433Z,100853.59
2022-08-20T09:18:52.301Z,100848.84
2022-08-20T09:21:18.851Z,100863.47
2022-08-20T09:23:45.248Z,100862.28
2022-08-20T09:26:12.017Z,100860.31
2022-08-20T09:28:38.351Z,100865.09
2022-08-20T09:31:04.852Z,100866.16
2022-08-20T09:33:33.405Z,100862.53
2022-08-20T09:35:59.784Z,100864.44
2022-08-20T09:38:26.217Z,100865.50
2022-08-20T09:40:52.557Z,100866.34
2022-08-20T09:43:18.917Z,100870.56
2022-08-20T09:45:45.239Z,100866.06
2022-08-20T09:48:11.628Z,100879.81
2022-08-20T09:50:41.054Z,100878.59
2022-08-20T09:53:07.533Z,100884.47
2022-08-20T09:55:35.842Z,100881.28
2022-08-20T09:58:22.447Z,100878.84
2022-08-20T10:00:48.853Z,100877.78
2022-08-20T10:03:15.599Z,100884.47
2022-08-20T10:05:42.008Z,100889.56
2022-08-20T10:08:09.239Z,100888.44
2022-08-20T10:10:36.015Z,100886.88
2022-08-20T10:13:02.633Z,100889.66
2022-08-20T10:15:29.823Z,100883.66
2022-08-20T10:17:57.348Z,100887.78
2022-08-20T10:20:24.775Z,100894.63
2022-08-20T10:22:51.258Z,100893.06
2022-08-20T10:25:17.818Z,100898.31
2022-08-20T10:27:44.822Z,100897.91
2022-08-20T10:30:11.279Z,100904.31
2022-08-20T10:32:37.581Z,100901.22
2022-08-20T10:35:04.387Z,100907.81
2022-08-20T10:37:30.694Z,100911.44
2022-08-20T10:39:57.461Z,100909.63
2022-08-20T10:42:23.933Z,100903.22
2022-08-20T10:44:50.233Z,100900.53
2022-08-20T10:47:21.602Z,100906.47
2022-08-20T10:49:48.964Z,100899.66
2022-08-20T10:52:15.544Z,100903.28
2022-08-20T10:54:42.290Z,100904.06
2022-08-20T10:57:13.072Z,100902.84
2022-08-20T10:59:40.851Z,100911.16
2022-08-20T11:02:07.511Z,100906.09
2022-08-20T11:04:34.278Z,100914.69
2022-08-20T11:07:10.355Z,100911.16
2022-08-20T11:09:36.707Z,100904.06
2022-08-20T11:12:03.191Z,100902.84
2022-08-20T11:14:29.519Z,100912.84
2022-08-20T11:16:55.908Z,100908.00
2022-08-20T11:19:22.246Z,100901.63
2022-08-20T11:21:48.582Z,100904.06
2022-08-20T11:24:15.074Z,100907.63
2022-08-20T11:26:41.405Z,100910.19
2022-08-20T11:29:07.856Z,100919.31
2022-08-20T11:31:34.256Z,100919.97
2022-08-20T11:34:00.554Z,100916.50
2022-08-20T11:36:27.020Z,100929.16
2022-08-20T11:38:53.497Z,100925.16
2022-08-20T11:41:20.008Z,100932.22
2022-08-20T11:44:04.793Z,100934.19
2022-08-20T11:46:34.157Z,100931.72
2022-08-20T11:49:00.471Z,100930.09
2022-08-20T11:51:26.779Z,100932.09
2022-08-20T11:53:53.200Z,100936.03
2022-08-20T11:56:20.603Z,100935.63
2022-08-20T11:58:47.968Z,100934.03
2022-08-20T12:01:14.465Z,100943.94
2022-08-20T12:03:40.776Z,100936.72
2022-08-20T12:06:07.234Z,100929.66
2022-08-20T12:08:33.656Z,100928.06
2022-08-20T12:11:01.675Z,100932.09
2022-08-20T12:13:47.751Z,100928.19
2022-08-20T12:16:15.701Z,100937.72
2022-08-20T12:18:42.411Z,100925.47
2022-08-20T12:21:08.748Z,100926.69
2022-08-20T12:23:35.093Z,100927.91
2022-08-20T12:26:03.238Z,100929.91
2022-08-20T12:28:30.191Z,100927.22
2022-08-20T12:30:57.046Z,100918.41
2022-08-20T12:33:23.690Z,100919.63
2022-08-20T12:35:52.086Z,100919.69
2022-08-20T12:38:18.642Z,100911.75
2022-08-20T12:40:45.151Z,100916.06
2022-08-20T12:43:11.550Z,100914.03
2022-08-20T12:45:38.025Z,100920.84
2022-08-20T12:48:06.390Z,100914.03
2022-08-20T12:50:33.335Z,100913.25
2022-08-20T12:53:00.519Z,100902.50
2022-08-20T12:55:27.322Z,100910.03
2022-08-20T12:57:56.427Z,100907.34
2022-08-20T13:00:23.690Z,100901.41
2022-08-20T13:02:51.227Z,100898.94
2022-08-20T13:05:17.552Z,100892.59
2022-08-20T13:07:44.406Z,100891.00
2022-08-20T13:10:13.035Z,100894.69
2022-08-20T13:12:39.337Z,100902.50
2022-08-20T13:15:05.997Z,100901.25
2022-08-20T13:17:38.787Z,100899.53
2022-08-20T13:20:07.944Z,100907.00
2022-08-20T13:22:34.631Z,100905.38
2022-08-20T13:25:01.108Z,100900.00
2022-08-20T13:27:27.749Z,100906.22
2022-08-20T13:29:58.566Z,100910.81
2022-08-20T13:32:25.693Z,100909.91
2022-08-20T13:34:52.080Z,100906.97
2022-08-20T13:37:25.527Z,100906.94
2022-08-20T13:39:52.564Z,100904.81
2022-08-20T13:42:18.982Z,100909.16
2022-08-20T13:44:45.371Z,100921.44
2022-08-20T13:47:19.022Z,100917.81
2022-08-20T13:49:46.119Z,100910.66
2022-08-20T13:52:12.449Z,100913.72
2022-08-20T13:54:43.184Z,100909.31
2022-08-20T13:57:11.677Z,100906.94
2022-08-20T13:59:42.277Z,100911.25
2022-08-20T14:02:10.744Z,100907.28
2022-08-20T14:04:37.471Z,100912.44
2022-08-20T14:07:17.656Z,100908.13
2022-08-20T14:09:45.759Z,100906.22
2022-08-20T14:12:13.372Z,100904.69
2022-08-20T14:14:40.635Z,100903.78
2022-08-20T14:17:17.487Z,100907.44
2022-08-20T14:19:44.642Z,100909.66
2022-08-20T14:22:11.031Z,100912.13
2022-08-20T14:24:37.390Z,100911.31
2022-08-20T14:27:07.540Z,100916.16
2022-08-20T14:29:35.943Z,100916.16
2022-08-20T14:32:04.275Z,100915.06
2022-08-20T14:34:31.014Z,100918.56
2022-08-20T14:36:58.135Z,100925.41
2022-08-20T14:39:25.372Z,100909.53
2022-08-20T14:41:51.685Z,100917.66
2022-08-20T14:44:17.990Z,100909.06
2022-08-20T14:46:44.363Z,100909.84
2022-08-20T14:49:10.719Z,100913.88
2022-08-20T14:51:38.697Z,100905.47
2022-08-20T14:54:05.111Z,100906.31
2022-08-20T14:56:31.556Z,100911.53
2022-08-20T14:58:57.853Z,100917.44
2022-08-20T15:01:24.193Z,100909.31
2022-08-20T15:03:50.661Z,100918.00
2022-08-20T15:06:21.739Z,100914.34
2022-08-20T15:08:48.561Z,100910.66
2022-08-20T15:11:14.905Z,100915.38
2022-08-20T15:13:41.309Z,100911.38
2022-08-20T15:16:07.615Z,100910.91
2022-08-20T15:18:34.380Z,100911.78
2022-08-20T15:21:00.681Z,100915.31
2022-08-20T15:23:27.002Z,100906.50
2022-08-20T15:25:53.416Z,100913.28
2022-08-20T15:28:19.732Z,100911.28
2022-08-20T15:30:46.263Z,100921.19
2022-08-20T15:33:12.634Z,100915.72
2022-08-20T15:35:39.062Z,100932.78
2022-08-20T15:38:05.422Z,100928.47
2022-08-20T15:40:32.459Z,100938.41
2022-08-20T15:42:59.881Z,100945.34
2022-08-20T15:45:26.598Z,100941.41
2022-08-20T15:47:52.926Z,100932.25
2022-08-20T15:50:30.191Z,100940.13
2022-08-20T15:52:57.472Z,100944.00
2022-08-20T15:55:24.342Z,100946.00
2022-08-20T15:57:58.126Z,100953.78
2022-08-20T16:00:47.490Z,100953.38
2022-08-20T16:03:46.320Z,100961.66
2022-08-20T16:06:17.178Z,100961.47
2022-08-20T16:09:02.376Z,100968.69
2022-08-20T16:11:47.655Z,100962.53
2022-08-20T16:14:15.938Z,100962.72
2022-08-20T16:16:59.102Z,100960.72
2022-08-20T16:19:28.758Z,100959.91
2022-08-20T16:21:56.688Z,100958.66
2022-08-20T16:24:23.045Z,100959.66
2022-08-20T16:26:49.462Z,100963.16
2022-08-20T16:29:15.778Z,100960.00
2022-08-20T16:31:49.613Z,100959.50
2022-08-20T16:34:33.271Z,100952.56
2022-08-20T16:37:04.504Z,100952.28
2022-08-20T16:39:45.942Z,100962.00
2022-08-20T16:42:17.898Z,100956.13
2022-08-20T16:44:46.328Z,100956.56
2022-08-20T16:47:17.117Z,100961.41
2022-08-20T16:49:55.780Z,100966.09
2022-08-20T16:52:22.176Z,100965.31
2022-08-20T16:54:48.518Z,100960.44
2022-08-20T16:57:17.383Z,100960.84
2022-08-20T16:59:59.180Z,100966.00
2022-08-20T17:02:25.918Z,100963.94
2022-08-20T17:04:59.033Z,100962.00
2022-08-20T17:07:46.492Z,100977.13
2022-08-20T17:10:16.420Z,100968.00
2022-08-20T17:12:43.113Z,100973.91
2022-08-20T17:15:17.976Z,100971.53
2022-08-20T17:17:44.278Z,100972.72
2022-08-20T17:20:20.559Z,100973.53
2022-08-20T17:22:52.911Z,100969.94
2022-08-20T17:25:40.359Z,100972.38
2022-08-20T17:28:17.480Z,100970.81
2022-08-20T17:30:44.371Z,100966.97
2022-08-20T17:33:24.299Z,100961.72
2022-08-20T17:35:55.761Z,100971.63
2022-08-20T17:38:25.849Z,100970.84
2022-08-20T17:40:58.123Z,100962.63
2022-08-20T17:43:25.555Z,100963.81
2022-08-20T17:45:53.174Z,100956.63
2022-08-20T17:48:46.114Z,100957.91
2022-08-20T17:51:17.735Z,100955.34
2022-08-20T17:53:46.406Z,100949.97
2022-08-20T17:56:23.177Z,100948.13
2022-08-20T17:59:19.086Z,100945.59
2022-08-20T18:01:59.628Z,100951.78
2022-08-20T18:04:26.367Z,100955.72
2022-08-20T18:07:12.066Z,100954.16
2022-08-20T18:09:52.640Z,100950.59
2022-08-20T18:12:34.241Z,100955.91
2022-08-20T18:15:07.145Z,100955.63
2022-08-20T18:17:58.616Z,100950.44
2022-08-20T18:20:43.338Z,100957.81
2022-08-20T18:23:16.328Z,100955.06
2022-08-20T18:25:49.623Z,100953.53
2022-08-20T18:28:18.929Z,100955.72
2022-08-20T18:31:04.771Z,100952.81
2022-08-20T18:33:33.251Z,100955.72
2022-08-20T18:36:10.200Z,100964.78
2022-08-20T18:38:38.485Z,100955.22
2022-08-20T18:41:05.845Z,100959.22
2022-08-20T18:43:32.230Z,100952.50
2022-08-20T18:46:18.924Z,100959.66
2022-08-20T18:48:52.930Z,100959.28
2022-08-20T18:51:20.980Z,100961.28
2022-08-20T18:53:48.032Z,100966.06
2022-08-20T18:56:29.363Z,100965.66
2022-08-20T18:59:09.114Z,100963.72
2022-08-20T19:01:36.543Z,100957.34
2022-08-20T19:04:12.222Z,100954.97
2022-08-20T19:06:44.900Z,100958.59
2022-08-20T19:09:28.842Z,100961.75
2022-08-20T19:11:55.219Z,100966.16
2022-08-20T19:14:40.427Z,100967.13
2022-08-20T19:17:16.114Z,100969.19
2022-08-20T19:19:42.538Z,100962.66
2022-08-20T19:22:10.785Z,100969.00
2022-08-20T19:24:41.881Z,100968.53
2022-08-20T19:27:11.104Z,100974.16
2022-08-20T19:29:40.039Z,100969.44
2022-08-20T19:32:08.064Z,100966.72
2022-08-20T19:34:35.242Z,100968.38
2022-08-20T19:37:27.796Z,100972.31
2022-08-20T19:39:51.280Z,100972.28
2022-08-20T19:42:20.293Z,100974.72
2022-08-20T19:45:01.632Z,100978.28
2022-08-20T19:47:49.305Z,100978.28
2022-08-20T19:50:22.079Z,100972.72
2022-08-20T19:52:48.443Z,100974.34
2022-08-20T19:55:23.152Z,100981.06
2022-08-20T19:57:52.818Z,100970.88
2022-08-20T20:00:19.252Z,100977.66
2022-08-20T20:02:45.752Z,100987.47
2022-08-20T20:05:12.301Z,100983.13
2022-08-20T20:07:40.451Z,100980.38
2022-08-20T20:10:09.833Z,100980.78
2022-08-20T20:12:36.491Z,100980.78
2022-08-20T20:15:05.850Z,100975.50
2022-08-20T20:17:34.726Z,100982.91
2022-08-20T20:20:02.446Z,100980.38
2022-08-20T20:22:31.169Z,100983.13
2022-08-20T20:25:18.122Z,100987.06
2022-08-20T20:27:49.415Z,100987.47
2022-08-20T20:30:20.570Z,100994.69
2022-08-20T20:32:49.172Z,100993.47
2022-08-20T20:35:33.185Z,100998.19
2022-08-20T20:38:04.141Z,101001.41
2022-08-20T20:40:35.963Z,101000.66
2022-08-20T20:43:09.628Z,101001.03
2022-08-20T20:45:39.480Z,101007.78
2022-08-20T20:48:16.961Z,101010.59
2022-08-20T20:50:43.422Z,101013.88
2022-08-20T20:53:09.933Z,101003.88
2022-08-20T20:55:37.657Z,101011.53
2022-08-20T20:58:04.486Z,101009.13
2022-08-20T21:00:32.326Z,101011.91
2022-08-20T21:02:59.761Z,101015.16
2022-08-20T21:05:29.420Z,101013.69
2022-08-20T21:08:01.348Z,101019.50
2022-08-20T21:10:30.092Z,101017.13
2022-08-20T21:12:56.766Z,101019.19
2022-08-20T21:15:24.916Z,101022.44
2022-08-20T21:17:52.032Z,101020.44
2022-08-20T21:20:18.695Z,101020.09
2022-08-20T21:22:45.630Z,101012.59
2022-08-20T21:25:12.487Z,101007.47
2022-08-20T21:27:45.908Z,101005.56
2022-08-20T21:30:12.507Z,101008.72
2022-08-20T21:32:38.951Z,101008.25
2022-08-20T21:35:05.573Z,101003.81
2022-08-20T21:37:32.476Z,101006.66
2022-08-20T21:39:59.003Z,101005.94
2022-08-20T21:42:28.956Z,101008.34
2022-08-20T21:44:56.869Z,101000.03
2022-08-20T21:47:23.218Z,100998.06
2022-08-20T21:49:49.548Z,101004.06
2022-08-20T21:52:16.460Z,100990.94
2022-08-20T21:54:42.773Z,100993.28
2022-08-20T21:57:14.392Z,100989.66
2022-08-20T21:59:41.293Z,100989.25
2022-08-20T22:02:08.385Z,100991.91
2022-08-20T22:04:35.700Z,100983.97
2022-08-20T22:07:03.466Z,100987.13
2022-08-20T22:09:31.486Z,100990.66
2022-08-20T22:12:00.846Z,100986.72
2022-08-20T22:14:27.607Z,100987.47
2022-08-20T22:16:53.906Z,100988.25
2022-08-20T22:19:20.286Z,100990.25
2022-08-20T22:21:46.958Z,100985.47
2022-08-20T22:24:13.440Z,100981.88
2022-08-20T22:26:40.754Z,100988.28
2022-08-20T22:29:10.024Z,100987.44
2022-08-20T22:31:37.585Z,100993.03
2022-08-20T22:34:04.479Z,100987.47
2022-08-20T22:36:31.751Z,100989.47
2022-08-20T22:38:58.090Z,100991.06
2022-08-20T22:41:24.589Z,100990.31
2022-08-20T22:43:57.146Z,100989.22
2022-08-20T22:46:26.444Z,100992.00
2022-08-20T22:48:53.354Z,100996.75
2022-08-20T22:51:24.225Z,100985.19
2022-08-20T22:53:50.632Z,100975.31
2022-08-20T22:56:19.844Z,100984.09
2022-08-20T22:58:48.323Z,100981.78
2022-08-20T23:01:16.966Z,100978.22
2022-08-20T23:03:43.382Z,100981.41
2022-08-20T23:06:10.470Z,100990.56
2022-08-20T23:08:37.917Z,100997.38
2022-08-20T23:11:04.311Z,100995.38
2022-08-20T23:13:30.598Z,100995.81
2022-08-20T23:15:58.716Z,100993.81
2022-08-20T23:18:25.095Z,100982.34
2022-08-20T23:20:56.286Z,100983.91
2022-08-20T23:23:23.290Z,100987.53
2022-08-20T23:25:49.878Z,100989.47
2022-08-20T23:28:17.787Z,100984.75
2022-08-20T23:30:44.129Z,100986.34
2022-08-20T23:33:10.472Z,100992.69
2022-08-20T23:35:37.528Z,100986.72
2022-08-20T23:38:03.835Z,100989.91
2022-08-20T23:40:30.205Z,100989.13
2022-08-20T23:42:57.266Z,100995.88
2022-08-20T23:45:23.808Z,100991.88
2022-08-20T23:47:50.466Z,101003.00
2022-08-20T23:50:25.706Z,100993.50
2022-08-20T23:52:52.716Z,101002.59
2022-08-20T23:55:19.228Z,100993.09
2022-08-20T23:57:45.624Z,101008.16
